sensor_id;sensor_type;location;lat;lon;timestamp;pressure;altitude;pressure_sealevel;temperature;humidity
56737;BME280;42618;51.226;4.910;2023-04-06T00:00:53;49742.94;;;-146.94;80.75
56737;BME280;42618;51.226;4.910;2023-04-06T00:03:20;49727.00;;;-146.94;81.66
56737;BME280;42618;51.226;4.910;2023-04-06T00:05:47;49764.88;;;-146.94;81.91
56737;BME280;42618;51.226;4.910;2023-04-06T00:08:14;49736.97;;;-146.94;82.16
56737;BME280;42618;51.226;4.910;2023-04-06T00:10:41;49733.00;;;-146.94;81.85
56737;BME280;42618;51.226;4.910;2023-04-06T00:13:08;49721.03;;;-146.94;81.99
56737;BME280;42618;51.226;4.910;2023-04-06T00:15:35;49727.00;;;-146.94;82.28
56737;BME280;42618;51.226;4.910;2023-04-06T00:18:02;49734.97;;;-146.94;82.30
56737;BME280;42618;51.226;4.910;2023-04-06T00:20:29;49719.03;;;-146.94;82.61
56737;BME280;42618;51.226;4.910;2023-04-06T00:22:56;49733.00;;;-146.94;82.20
56737;BME280;42618;51.226;4.910;2023-04-06T00:25:23;49703.09;;;-146.94;82.28
56737;BME280;42618;51.226;4.910;2023-04-06T00:27:50;49727.00;;;-146.94;81.18
56737;BME280;42618;51.226;4.910;2023-04-06T00:30:17;49734.97;;;-146.94;80.38
56737;BME280;42618;51.226;4.910;2023-04-06T00:32:44;49719.03;;;-146.94;79.30
56737;BME280;42618;51.226;4.910;2023-04-06T00:35:11;49762.88;;;-146.94;79.14
56737;BME280;42618;51.226;4.910;2023-04-06T00:37:38;49721.03;;;-146.94;77.63
56737;BME280;42618;51.226;4.910;2023-04-06T00:40:05;49721.03;;;-146.94;75.86
56737;BME280;42618;51.226;4.910;2023-04-06T00:42:32;49711.06;;;-146.94;74.31
56737;BME280;42618;51.226;4.910;2023-04-06T00:45:00;49699.09;;;-146.94;73.93
56737;BME280;42618;51.226;4.910;2023-04-06T00:47:27;49723.03;;;-146.94;72.91
56737;BME280;42618;51.226;4.910;2023-04-06T00:49:56;49742.94;;;-146.94;73.95
56737;BME280;42618;51.226;4.910;2023-04-06T00:52:23;49715.03;;;-146.94;73.51
56737;BME280;42618;51.226;4.910;2023-04-06T00:54:51;49756.91;;;-146.94;73.44
56737;BME280;42618;51.226;4.910;2023-04-06T00:57:19;49695.09;;;-146.94;74.15
56737;BME280;42618;51.226;4.910;2023-04-06T00:59:52;49734.97;;;-146.94;73.27
56737;BME280;42618;51.226;4.910;2023-04-06T01:02:20;49717.03;;;-146.94;73.00
56737;BME280;42618;51.226;4.910;2023-04-06T01:04:50;49731.00;;;-146.94;73.31
56737;BME280;42618;51.226;4.910;2023-04-06T01:07:29;49723.03;;;-146.94;73.21
56737;BME280;42618;51.226;4.910;2023-04-06T01:10:27;49721.03;;;-146.94;72.62
56737;BME280;42618;51.226;4.910;2023-04-06T01:13:08;49725.00;;;-146.94;72.71
56737;BME280;42618;51.226;4.910;2023-04-06T01:15:54;49719.03;;;-146.94;73.59
56737;BME280;42618;51.226;4.910;2023-04-06T01:18:29;49719.03;;;-146.94;73.11
56737;BME280;42618;51.226;4.910;2023-04-06T01:21:12;49699.09;;;-146.94;73.27
56737;BME280;42618;51.226;4.910;2023-04-06T01:23:56;49758.91;;;-146.94;73.50
56737;BME280;42618;51.226;4.910;2023-04-06T01:26:32;49691.13;;;-146.94;75.20
56737;BME280;42618;51.226;4.910;2023-04-06T01:29:00;49738.97;;;-146.94;74.89
56737;BME280;42618;51.226;4.910;2023-04-06T01:31:29;49693.13;;;-146.94;74.86
56737;BME280;42618;51.226;4.910;2023-04-06T01:33:56;49734.97;;;-146.94;74.87
56737;BME280;42618;51.226;4.910;2023-04-06T01:36:25;49719.03;;;-146.94;74.20
56737;BME280;42618;51.226;4.910;2023-04-06T01:39:04;49701.09;;;-146.94;73.79
56737;BME280;42618;51.226;4.910;2023-04-06T01:41:35;49738.97;;;-146.94;74.73
56737;BME280;42618;51.226;4.910;2023-04-06T01:44:02;49707.06;;;-146.94;75.07
56737;BME280;42618;51.226;4.910;2023-04-06T01:46:30;49703.09;;;-146.94;74.45
56737;BME280;42618;51.226;4.910;2023-04-06T01:48:57;49734.97;;;-146.94;74.82
56737;BME280;42618;51.226;4.910;2023-04-06T01:51:43;49705.06;;;-146.94;75.02
56737;BME280;42618;51.226;4.910;2023-04-06T01:54:12;49675.19;;;-146.94;74.36
56737;BME280;42618;51.226;4.910;2023-04-06T01:56:51;49709.06;;;-146.94;74.31
56737;BME280;42618;51.226;4.910;2023-04-06T01:59:31;49750.94;;;-146.94;74.78
56737;BME280;42618;51.226;4.910;2023-04-06T02:02:03;49734.97;;;-146.94;74.56
56737;BME280;42618;51.226;4.910;2023-04-06T02:04:31;49709.06;;;-146.94;74.74
56737;BME280;42618;51.226;4.910;2023-04-06T02:07:07;49725.00;;;-146.94;74.95
56737;BME280;42618;51.226;4.910;2023-04-06T02:09:34;49711.06;;;-146.94;74.27
56737;BME280;42618;51.226;4.910;2023-04-06T02:12:03;49697.09;;;-146.94;74.85
56737;BME280;42618;51.226;4.910;2023-04-06T02:14:32;49731.00;;;-146.94;74.76
56737;BME280;42618;51.226;4.910;2023-04-06T02:16:59;49703.09;;;-146.94;74.71
56737;BME280;42618;51.226;4.910;2023-04-06T02:19:27;49754.91;;;-146.94;74.65
56737;BME280;42618;51.226;4.910;2023-04-06T02:21:54;49709.06;;;-146.94;74.82
56737;BME280;42618;51.226;4.910;2023-04-06T02:24:22;49701.09;;;-146.94;74.74
56737;BME280;42618;51.226;4.910;2023-04-06T02:26:48;49719.03;;;-146.94;74.51
56737;BME280;42618;51.226;4.910;2023-04-06T02:29:15;49699.09;;;-146.94;74.58
56737;BME280;42618;51.226;4.910;2023-04-06T02:31:42;49721.03;;;-146.94;74.89
56737;BME280;42618;51.226;4.910;2023-04-06T02:34:09;49770.88;;;-146.94;74.73
56737;BME280;42618;51.226;4.910;2023-04-06T02:36:45;49705.06;;;-146.94;75.04
56737;BME280;42618;51.226;4.910;2023-04-06T02:39:13;49742.94;;;-146.94;74.94
56737;BME280;42618;51.226;4.910;2023-04-06T02:41:40;49738.97;;;-146.94;75.65
56737;BME280;42618;51.226;4.910;2023-04-06T02:44:08;49701.09;;;-146.94;75.29
56737;BME280;42618;51.226;4.910;2023-04-06T02:46:41;49683.16;;;-146.94;75.04
56737;BME280;42618;51.226;4.910;2023-04-06T02:49:08;49736.97;;;-146.94;75.40
56737;BME280;42618;51.226;4.910;2023-04-06T02:51:36;49729.00;;;-146.94;74.68
56737;BME280;42618;51.226;4.910;2023-04-06T02:54:22;49683.16;;;-146.94;74.33
56737;BME280;42618;51.226;4.910;2023-04-06T02:56:49;49717.03;;;-146.94;74.18
56737;BME280;42618;51.226;4.910;2023-04-06T02:59:17;49713.06;;;-146.94;74.79
56737;BME280;42618;51.226;4.910;2023-04-06T03:01:53;49734.97;;;-146.94;74.71
56737;BME280;42618;51.226;4.910;2023-04-06T03:04:20;49721.03;;;-146.94;74.17
56737;BME280;42618;51.226;4.910;2023-04-06T03:06:50;49707.06;;;-146.94;74.15
56737;BME280;42618;51.226;4.910;2023-04-06T03:09:28;49695.09;;;-146.94;74.83
56737;BME280;42618;51.226;4.910;2023-04-06T03:11:54;49717.03;;;-146.94;74.48
56737;BME280;42618;51.226;4.910;2023-04-06T03:14:23;49717.03;;;-146.94;74.38
56737;BME280;42618;51.226;4.910;2023-04-06T03:16:49;49738.97;;;-146.94;74.07
56737;BME280;42618;51.226;4.910;2023-04-06T03:19:20;49748.94;;;-146.94;73.79
56737;BME280;42618;51.226;4.910;2023-04-06T03:21:48;49731.00;;;-146.94;74.13
56737;BME280;42618;51.226;4.910;2023-04-06T03:24:16;49754.91;;;-146.94;73.92
56737;BME280;42618;51.226;4.910;2023-04-06T03:26:42;49744.94;;;-146.94;73.50
56737;BME280;42618;51.226;4.910;2023-04-06T03:29:09;49738.97;;;-146.94;73.90
56737;BME280;42618;51.226;4.910;2023-04-06T03:31:36;49695.09;;;-146.94;73.85
56737;BME280;42618;51.226;4.910;2023-04-06T03:34:42;49703.09;;;-146.94;74.51
56737;BME280;42618;51.226;4.910;2023-04-06T03:37:08;49748.94;;;-146.94;74.72
56737;BME280;42618;51.226;4.910;2023-04-06T03:39:43;49711.06;;;-146.94;74.63
56737;BME280;42618;51.226;4.910;2023-04-06T03:42:16;49707.06;;;-146.94;74.31
56737;BME280;42618;51.226;4.910;2023-04-06T03:44:51;49715.03;;;-146.94;74.89
56737;BME280;42618;51.226;4.910;2023-04-06T03:47:18;49709.06;;;-146.94;74.35
56737;BME280;42618;51.226;4.910;2023-04-06T03:49:45;49768.88;;;-146.94;74.41
56737;BME280;42618;51.226;4.910;2023-04-06T03:52:14;49723.03;;;-146.94;74.58
56737;BME280;42618;51.226;4.910;2023-04-06T03:54:41;49719.03;;;-146.94;75.05
56737;BME280;42618;51.226;4.910;2023-04-06T03:57:09;49727.00;;;-146.94;74.33
56737;BME280;42618;51.226;4.910;2023-04-06T03:59:36;49701.09;;;-146.94;74.47
56737;BME280;42618;51.226;4.910;2023-04-06T04:02:03;49703.09;;;-146.94;74.67
56737;BME280;42618;51.226;4.910;2023-04-06T04:04:30;49691.13;;;-146.94;74.43
56737;BME280;42618;51.226;4.910;2023-04-06T04:06:57;49742.94;;;-146.94;75.05
56737;BME280;42618;51.226;4.910;2023-04-06T04:09:23;49721.03;;;-146.94;74.75
56737;BME280;42618;51.226;4.910;2023-04-06T04:11:52;49727.00;;;-146.94;74.76
56737;BME280;42618;51.226;4.910;2023-04-06T04:14:20;49744.94;;;-146.94;74.14
56737;BME280;42618;51.226;4.910;2023-04-06T04:16:47;49715.03;;;-146.94;74.48
56737;BME280;42618;51.226;4.910;2023-04-06T04:19:13;49701.09;;;-146.94;73.85
56737;BME280;42618;51.226;4.910;2023-04-06T04:21:44;49742.94;;;-146.94;73.51
56737;BME280;42618;51.226;4.910;2023-04-06T04:24:15;49721.03;;;-146.94;73.79
56737;BME280;42618;51.226;4.910;2023-04-06T04:26:42;49721.03;;;-146.94;73.96
56737;BME280;42618;51.226;4.910;2023-04-06T04:29:09;49707.06;;;-146.94;73.89
56737;BME280;42618;51.226;4.910;2023-04-06T04:31:37;49689.13;;;-146.94;73.75
56737;BME280;42618;51.226;4.910;2023-04-06T04:34:11;49711.06;;;-146.94;73.88
56737;BME280;42618;51.226;4.910;2023-04-06T04:36:38;49719.03;;;-146.94;73.99
56737;BME280;42618;51.226;4.910;2023-04-06T04:39:08;49727.00;;;-146.94;73.69
56737;BME280;42618;51.226;4.910;2023-04-06T04:41:40;49731.00;;;-146.94;74.33
56737;BME280;42618;51.226;4.910;2023-04-06T04:44:09;49756.91;;;-146.94;74.34
56737;BME280;42618;51.226;4.910;2023-04-06T04:46:36;49734.97;;;-146.94;74.76
56737;BME280;42618;51.226;4.910;2023-04-06T04:49:03;49707.06;;;-146.94;74.70
56737;BME280;42618;51.226;4.910;2023-04-06T04:51:31;49693.13;;;-146.94;74.16
56737;BME280;42618;51.226;4.910;2023-04-06T04:54:15;49711.06;;;-146.94;74.08
56737;BME280;42618;51.226;4.910;2023-04-06T04:56:42;49713.06;;;-146.94;74.05
56737;BME280;42618;51.226;4.910;2023-04-06T04:59:22;49725.00;;;-146.94;74.41
56737;BME280;42618;51.226;4.910;2023-04-06T05:01:56;49740.97;;;-146.94;74.87
56737;BME280;42618;51.226;4.910;2023-04-06T05:04:31;49709.06;;;-146.94;75.13
56737;BME280;42618;51.226;4.910;2023-04-06T05:07:10;49715.03;;;-146.94;74.77
56737;BME280;42618;51.226;4.910;2023-04-06T05:09:39;49750.94;;;-146.94;74.41
56737;BME280;42618;51.226;4.910;2023-04-06T05:12:06;49723.03;;;-146.94;74.71
56737;BME280;42618;51.226;4.910;2023-04-06T05:14:41;49742.94;;;-146.94;74.59
56737;BME280;42618;51.226;4.910;2023-04-06T05:17:13;49709.06;;;-146.94;75.14
56737;BME280;42618;51.226;4.910;2023-04-06T05:19:40;49738.97;;;-146.94;75.54
56737;BME280;42618;51.226;4.910;2023-04-06T05:22:08;49754.91;;;-146.94;75.02
56737;BME280;42618;51.226;4.910;2023-04-06T05:24:38;49695.09;;;-146.94;75.17
56737;BME280;42618;51.226;4.910;2023-04-06T05:27:07;49754.91;;;-146.94;75.19
56737;BME280;42618;51.226;4.910;2023-04-06T05:29:34;49734.97;;;-146.94;75.41
56737;BME280;42618;51.226;4.910;2023-04-06T05:32:01;49727.00;;;-146.94;75.01
56737;BME280;42618;51.226;4.910;2023-04-06T05:34:29;49717.03;;;-146.94;74.71
56737;BME280;42618;51.226;4.910;2023-04-06T05:36:57;49744.94;;;-146.94;74.96
56737;BME280;42618;51.226;4.910;2023-04-06T05:39:24;49734.97;;;-146.94;75.42
56737;BME280;42618;51.226;4.910;2023-04-06T05:41:53;49713.06;;;-146.94;75.50
56737;BME280;42618;51.226;4.910;2023-04-06T05:44:30;49727.00;;;-146.94;75.11
56737;BME280;42618;51.226;4.910;2023-04-06T05:47:06;49719.03;;;-146.94;74.90
56737;BME280;42618;51.226;4.910;2023-04-06T05:49:33;49729.00;;;-146.94;75.00
56737;BME280;42618;51.226;4.910;2023-04-06T05:52:01;49733.00;;;-146.94;74.51
56737;BME280;42618;51.226;4.910;2023-04-06T05:54:29;49731.00;;;-146.94;74.77
56737;BME280;42618;51.226;4.910;2023-04-06T05:57:01;49734.97;;;-146.94;74.48
56737;BME280;42618;51.226;4.910;2023-04-06T05:59:30;49691.13;;;-146.94;75.08
56737;BME280;42618;51.226;4.910;2023-04-06T06:01:57;49719.03;;;-146.94;75.09
56737;BME280;42618;51.226;4.910;2023-04-06T06:04:25;49733.00;;;-146.94;74.48
56737;BME280;42618;51.226;4.910;2023-04-06T06:06:53;49699.09;;;-146.94;74.86
56737;BME280;42618;51.226;4.910;2023-04-06T06:09:26;49715.03;;;-146.94;74.73
56737;BME280;42618;51.226;4.910;2023-04-06T06:12:13;49754.91;;;-146.94;75.32
56737;BME280;42618;51.226;4.910;2023-04-06T06:14:40;49691.13;;;-146.94;74.78
56737;BME280;42618;51.226;4.910;2023-04-06T06:17:08;49744.94;;;-146.94;74.84
56737;BME280;42618;51.226;4.910;2023-04-06T06:19:36;49772.84;;;-146.94;74.74
56737;BME280;42618;51.226;4.910;2023-04-06T06:22:05;49736.97;;;-146.94;74.28
56737;BME280;42618;51.226;4.910;2023-04-06T06:24:36;49715.03;;;-146.94;74.69
56737;BME280;42618;51.226;4.910;2023-04-06T06:27:03;49703.09;;;-146.94;74.39
56737;BME280;42618;51.226;4.910;2023-04-06T06:29:32;49725.00;;;-146.94;74.59
56737;BME280;42618;51.226;4.910;2023-04-06T06:31:59;49723.03;;;-146.94;74.05
56737;BME280;42618;51.226;4.910;2023-04-06T06:34:27;49719.03;;;-146.94;73.15
56737;BME280;42618;51.226;4.910;2023-04-06T06:36:56;49742.94;;;-146.94;73.24
56737;BME280;42618;51.226;4.910;2023-04-06T06:39:23;49746.94;;;-146.94;72.19
56737;BME280;42618;51.226;4.910;2023-04-06T06:41:50;49727.00;;;-146.94;71.58
56737;BME280;42618;51.226;4.910;2023-04-06T06:44:21;49675.19;;;-146.94;72.42
56737;BME280;42618;51.226;4.910;2023-04-06T06:46:49;49733.00;;;-146.94;72.00
56737;BME280;42618;51.226;4.910;2023-04-06T06:49:17;49731.00;;;-146.94;71.81
56737;BME280;42618;51.226;4.910;2023-04-06T06:51:45;49727.00;;;-146.94;71.38
56737;BME280;42618;51.226;4.910;2023-04-06T06:54:12;49711.06;;;-146.94;70.74
56737;BME280;42618;51.226;4.910;2023-04-06T06:56:39;49715.03;;;-146.94;71.02
56737;BME280;42618;51.226;4.910;2023-04-06T06:59:06;49746.94;;;-146.94;70.70
56737;BME280;42618;51.226;4.910;2023-04-06T07:01:34;49711.06;;;-146.94;70.93
56737;BME280;42618;51.226;4.910;2023-04-06T07:04:01;49729.00;;;-146.94;70.93
56737;BME280;42618;51.226;4.910;2023-04-06T07:06:28;49736.97;;;-146.94;69.90
56737;BME280;42618;51.226;4.910;2023-04-06T07:08:55;49731.00;;;-146.94;69.39
56737;BME280;42618;51.226;4.910;2023-04-06T07:11:22;49736.97;;;-146.94;70.37
56737;BME280;42618;51.226;4.910;2023-04-06T07:13:49;49727.00;;;-146.94;69.28
56737;BME280;42618;51.226;4.910;2023-04-06T07:16:16;49731.00;;;-146.94;70.58
56737;BME280;42618;51.226;4.910;2023-04-06T07:18:43;49723.03;;;-146.94;70.04
56737;BME280;42618;51.226;4.910;2023-04-06T07:21:10;49727.00;;;-146.94;71.07
56737;BME280;42618;51.226;4.910;2023-04-06T07:23:37;49687.13;;;-146.94;71.35
56737;BME280;42618;51.226;4.910;2023-04-06T07:26:05;49738.97;;;-146.94;71.53
56737;BME280;42618;51.226;4.910;2023-04-06T07:28:32;49727.00;;;-146.94;71.20
56737;BME280;42618;51.226;4.910;2023-04-06T07:31:00;49719.03;;;-146.94;71.50
56737;BME280;42618;51.226;4.910;2023-04-06T07:33:28;49733.00;;;-146.94;71.21
56737;BME280;42618;51.226;4.910;2023-04-06T07:35:57;49713.06;;;-146.94;71.62
56737;BME280;42618;51.226;4.910;2023-04-06T07:38:25;49729.00;;;-146.94;72.01
56737;BME280;42618;51.226;4.910;2023-04-06T07:40:52;49723.03;;;-146.94;71.12
56737;BME280;42618;51.226;4.910;2023-04-06T07:43:19;49689.13;;;-146.94;71.96
56737;BME280;42618;51.226;4.910;2023-04-06T07:45:45;49721.03;;;-146.94;71.91
56737;BME280;42618;51.226;4.910;2023-04-06T07:48:15;49709.06;;;-146.94;71.57
56737;BME280;42618;51.226;4.910;2023-04-06T07:50:43;49691.13;;;-146.94;72.23
56737;BME280;42618;51.226;4.910;2023-04-06T07:53:10;49707.06;;;-146.94;72.48
56737;BME280;42618;51.226;4.910;2023-04-06T07:55:37;49703.09;;;-146.94;71.94
56737;BME280;42618;51.226;4.910;2023-04-06T07:58:04;49685.13;;;-146.94;73.75
56737;BME280;42618;51.226;4.910;2023-04-06T08:00:31;49665.22;;;-146.94;72.44
56737;BME280;42618;51.226;4.910;2023-04-06T08:02:58;49729.00;;;-146.94;72.16
56737;BME280;42618;51.226;4.910;2023-04-06T08:05:25;49729.00;;;-146.94;71.71
56737;BME280;42618;51.226;4.910;2023-04-06T08:07:52;49709.06;;;-146.94;70.64
56737;BME280;42618;51.226;4.910;2023-04-06T08:10:19;49683.16;;;-146.94;70.43
56737;BME280;42618;51.226;4.910;2023-04-06T08:12:46;49715.03;;;-146.94;71.78
56737;BME280;42618;51.226;4.910;2023-04-06T08:15:12;49752.91;;;-146.94;73.53
56737;BME280;42618;51.226;4.910;2023-04-06T08:17:39;49715.03;;;-146.94;75.75
56737;BME280;42618;51.226;4.910;2023-04-06T08:20:06;49754.91;;;-146.94;78.59
56737;BME280;42618;51.226;4.910;2023-04-06T08:22:33;49709.06;;;-146.94;81.34
56737;BME280;42618;51.226;4.910;2023-04-06T08:25:00;49723.03;;;-146.94;84.06
56737;BME280;42618;51.226;4.910;2023-04-06T08:27:26;49723.03;;;-146.94;85.23
56737;BME280;42618;51.226;4.910;2023-04-06T08:29:53;49711.06;;;-146.94;86.82
56737;BME280;42618;51.226;4.910;2023-04-06T08:32:20;49752.91;;;-146.94;87.76
56737;BME280;42618;51.226;4.910;2023-04-06T08:34:47;49711.06;;;-146.94;90.00
56737;BME280;42618;51.226;4.910;2023-04-06T08:37:13;49733.00;;;-146.94;92.05
56737;BME280;42618;51.226;4.910;2023-04-06T08:39:40;49738.97;;;-146.94;93.39
56737;BME280;42618;51.226;4.910;2023-04-06T08:42:12;49758.91;;;-146.94;96.19
56737;BME280;42618;51.226;4.910;2023-04-06T08:44:43;49729.00;;;-146.94;96.33
56737;BME280;42618;51.226;4.910;2023-04-06T08:47:11;49697.09;;;-146.94;96.98
56737;BME280;42618;51.226;4.910;2023-04-06T08:49:38;49727.00;;;-146.94;98.23
56737;BME280;42618;51.226;4.910;2023-04-06T08:52:07;49711.06;;;-146.94;98.25
56737;BME280;42618;51.226;4.910;2023-04-06T08:54:34;49715.03;;;-146.94;98.39
56737;BME280;42618;51.226;4.910;2023-04-06T08:57:02;49683.16;;;-146.94;99.31
56737;BME280;42618;51.226;4.910;2023-04-06T08:59:30;49738.97;;;-146.94;100.00
56737;BME280;42618;51.226;4.910;2023-04-06T09:01:58;49721.03;;;-146.94;100.00
56737;BME280;42618;51.226;4.910;2023-04-06T09:04:26;49723.03;;;-146.94;100.00
56737;BME280;42618;51.226;4.910;2023-04-06T09:06:54;49740.97;;;-146.94;100.00
56737;BME280;42618;51.226;4.910;2023-04-06T09:09:20;49736.97;;;-146.94;100.00
56737;BME280;42618;51.226;4.910;2023-04-06T09:11:51;49742.94;;;-146.94;100.00
56737;BME280;42618;51.226;4.910;2023-04-06T09:14:38;49707.06;;;-146.94;100.00
56737;BME280;42618;51.226;4.910;2023-04-06T09:17:05;49770.88;;;-146.94;100.00
56737;BME280;42618;51.226;4.910;2023-04-06T10:16:40;49754.91;;;-146.94;100.00
56737;BME280;42618;51.226;4.910;2023-04-06T10:19:18;49742.94;;;-146.94;100.00
56737;BME280;42618;51.226;4.910;2023-04-06T10:21:51;49734.97;;;-146.94;100.00
56737;BME280;42618;51.226;4.910;2023-04-06T10:24:20;49719.03;;;-146.94;100.00
56737;BME280;42618;51.226;4.910;2023-04-06T10:27:03;49746.94;;;-146.94;100.00
56737;BME280;42618;51.226;4.910;2023-04-06T10:29:50;49727.00;;;-146.94;100.00
56737;BME280;42618;51.226;4.910;2023-04-06T10:32:17;49746.94;;;-146.94;100.00
56737;BME280;42618;51.226;4.910;2023-04-06T10:34:44;49742.94;;;-146.94;100.00
56737;BME280;42618;51.226;4.910;2023-04-06T10:37:15;49727.00;;;-146.94;100.00
56737;BME280;42618;51.226;4.910;2023-04-06T10:39:53;49679.16;;;-146.94;100.00
56737;BME280;42618;51.226;4.910;2023-04-06T10:42:25;49772.84;;;-146.94;100.00
56737;BME280;42618;51.226;4.910;2023-04-06T10:44:52;49746.94;;;-146.94;100.00
56737;BME280;42618;51.226;4.910;2023-04-06T10:47:19;49760.91;;;-146.94;100.00
56737;BME280;42618;51.226;4.910;2023-04-06T10:49:46;49713.06;;;-146.94;100.00
56737;BME280;42618;51.226;4.910;2023-04-06T10:52:12;49721.03;;;-146.94;100.00
56737;BME280;42618;51.226;4.910;2023-04-06T10:54:43;49701.09;;;-146.94;100.00
56737;BME280;42618;51.226;4.910;2023-04-06T10:57:12;49734.97;;;-146.94;100.00
56737;BME280;42618;51.226;4.910;2023-04-06T10:59:42;49719.03;;;-146.94;100.00
56737;BME280;42618;51.226;4.910;2023-04-06T11:02:19;49711.06;;;-146.94;100.00
56737;BME280;42618;51.226;4.910;2023-04-06T11:04:57;49740.97;;;-146.94;100.00
56737;BME280;42618;51.226;4.910;2023-04-06T11:07:27;49707.06;;;-146.94;100.00
56737;BME280;42618;51.226;4.910;2023-04-06T11:09:56;49727.00;;;-146.94;100.00
56737;BME280;42618;51.226;4.910;2023-04-06T11:12:42;49709.06;;;-146.94;100.00
56737;BME280;42618;51.226;4.910;2023-04-06T11:15:09;49754.91;;;-146.94;100.00
56737;BME280;42618;51.226;4.910;2023-04-06T11:17:36;49733.00;;;-146.94;100.00
56737;BME280;42618;51.226;4.910;2023-04-06T11:20:09;49746.94;;;-146.94;100.00
56737;BME280;42618;51.226;4.910;2023-04-06T11:22:36;49719.03;;;-146.94;100.00
56737;BME280;42618;51.226;4.910;2023-04-06T11:25:06;49734.97;;;-146.94;100.00
56737;BME280;42618;51.226;4.910;2023-04-06T11:27:34;49762.88;;;-146.94;100.00
56737;BME280;42618;51.226;4.910;2023-04-06T11:30:01;49750.94;;;-146.94;100.00
56737;BME280;42618;51.226;4.910;2023-04-06T11:32:28;49736.97;;;-146.94;100.00
56737;BME280;42618;51.226;4.910;2023-04-06T11:34:57;49703.09;;;-146.94;100.00
56737;BME280;42618;51.226;4.910;2023-04-06T11:37:26;49754.91;;;-146.94;100.00
56737;BME280;42618;51.226;4.910;2023-04-06T11:39:54;49725.00;;;-146.94;100.00
56737;BME280;42618;51.226;4.910;2023-04-06T11:42:26;49727.00;;;-146.94;100.00
56737;BME280;42618;51.226;4.910;2023-04-06T11:44:54;49778.84;;;-146.94;100.00
56737;BME280;42618;51.226;4.910;2023-04-06T11:47:27;49750.94;;;-146.94;100.00
56737;BME280;42618;51.226;4.910;2023-04-06T11:49:55;49715.03;;;-146.94;100.00
56737;BME280;42618;51.226;4.910;2023-04-06T11:52:23;49748.94;;;-146.94;100.00
56737;BME280;42618;51.226;4.910;2023-04-06T11:54:52;49738.97;;;-146.94;100.00
56737;BME280;42618;51.226;4.910;2023-04-06T11:57:20;49746.94;;;-146.94;100.00
56737;BME280;42618;51.226;4.910;2023-04-06T11:59:47;49742.94;;;-146.94;100.00
56737;BME280;42618;51.226;4.910;2023-04-06T12:02:14;49756.91;;;-146.94;100.00
56737;BME280;42618;51.226;4.910;2023-04-06T12:04:41;49774.84;;;-146.94;100.00
56737;BME280;42618;51.226;4.910;2023-04-06T12:07:08;49746.94;;;-146.94;100.00
56737;BME280;42618;51.226;4.910;2023-04-06T12:09:35;49770.88;;;-146.94;100.00
56737;BME280;42618;51.226;4.910;2023-04-06T12:12:03;49742.94;;;-146.94;100.00
56737;BME280;42618;51.226;4.910;2023-04-06T12:14:30;49758.91;;;-146.94;100.00
56737;BME280;42618;51.226;4.910;2023-04-06T12:16:58;49725.00;;;-146.94;100.00
56737;BME280;42618;51.226;4.910;2023-04-06T12:19:25;49786.81;;;-146.94;100.00
56737;BME280;42618;51.226;4.910;2023-04-06T12:21:53;49758.91;;;-146.94;100.00
56737;BME280;42618;51.226;4.910;2023-04-06T12:24:21;49748.94;;;-146.94;100.00
56737;BME280;42618;51.226;4.910;2023-04-06T12:26:48;49740.97;;;-146.94;100.00
56737;BME280;42618;51.226;4.910;2023-04-06T12:29:19;49740.97;;;-146.94;100.00
56737;BME280;42618;51.226;4.910;2023-04-06T12:31:46;49725.00;;;-146.94;100.00
56737;BME280;42618;51.226;4.910;2023-04-06T12:34:13;49776.84;;;-146.94;100.00
56737;BME280;42618;51.226;4.910;2023-04-06T12:36:40;49758.91;;;-146.94;100.00
56737;BME280;42618;51.226;4.910;2023-04-06T12:39:07;49754.91;;;-146.94;100.00
56737;BME280;42618;51.226;4.910;2023-04-06T12:41:33;49790.81;;;-146.94;100.00
56737;BME280;42618;51.226;4.910;2023-04-06T12:44:01;49746.94;;;-146.94;100.00
56737;BME280;42618;51.226;4.910;2023-04-06T12:46:29;49778.84;;;-146.94;100.00
56737;BME280;42618;51.226;4.910;2023-04-06T12:48:59;49721.03;;;-146.94;100.00
56737;BME280;42618;51.226;4.910;2023-04-06T12:51:28;49778.84;;;-146.94;100.00
56737;BME280;42618;51.226;4.910;2023-04-06T12:53:55;49752.91;;;-146.94;100.00
56737;BME280;42618;51.226;4.910;2023-04-06T12:56:22;49754.91;;;-146.94;100.00
56737;BME280;42618;51.226;4.910;2023-04-06T12:58:52;49752.91;;;-146.94;100.00
56737;BME280;42618;51.226;4.910;2023-04-06T13:01:19;49758.91;;;-146.94;100.00
56737;BME280;42618;51.226;4.910;2023-04-06T13:03:46;49752.91;;;-146.94;100.00
56737;BME280;42618;51.226;4.910;2023-04-06T13:06:13;49762.88;;;-146.94;100.00
56737;BME280;42618;51.226;4.910;2023-04-06T13:08:41;49734.97;;;-146.94;100.00
56737;BME280;42618;51.226;4.910;2023-04-06T13:11:09;49778.84;;;-146.94;100.00
56737;BME280;42618;51.226;4.910;2023-04-06T13:13:36;49750.94;;;-146.94;100.00
56737;BME280;42618;51.226;4.910;2023-04-06T13:16:06;49772.84;;;-146.94;100.00
56737;BME280;42618;51.226;4.910;2023-04-06T13:18:34;49770.88;;;-146.94;100.00
56737;BME280;42618;51.226;4.910;2023-04-06T13:21:02;49740.97;;;-146.94;100.00
56737;BME280;42618;51.226;4.910;2023-04-06T13:23:28;49770.88;;;-146.94;100.00
56737;BME280;42618;51.226;4.910;2023-04-06T13:26:04;49746.94;;;-146.94;100.00
56737;BME280;42618;51.226;4.910;2023-04-06T13:28:31;49758.91;;;-146.94;100.00
56737;BME280;42618;51.226;4.910;2023-04-06T13:30:59;49727.00;;;-146.94;100.00
56737;BME280;42618;51.226;4.910;2023-04-06T13:33:27;49746.94;;;-146.94;100.00
56737;BME280;42618;51.226;4.910;2023-04-06T13:35:54;49727.00;;;-146.94;100.00
56737;BME280;42618;51.226;4.910;2023-04-06T13:38:21;49746.94;;;-146.94;100.00
56737;BME280;42618;51.226;4.910;2023-04-06T13:40:51;49744.94;;;-146.94;100.00
56737;BME280;42618;51.226;4.910;2023-04-06T13:43:18;49754.91;;;-146.94;100.00
56737;BME280;42618;51.226;4.910;2023-04-06T13:45:51;49738.97;;;-146.94;100.00